Time,TemperatureF,DewpointF,PressureIn,WindDirection,WindDirectionDegrees,WindSpeedMPH,WindSpeedGustMPH,Humidity,HourlyPrecipIn,Conditions,Clouds,dailyrainin,SoftwareType,DateUTC
2013-03-04 00:00:00,29.2,16.7,29.99,SSE,157,4.0,5.0,59,0.00,,---,0.00,VWS V14.01,2013-03-04 05:00:00,
2013-03-04 00:05:00,29.1,16.6,29.98,SE,126,2.0,5.0,59,0.00,,---,0.00,VWS V14.01,2013-03-04 05:05:00,
2013-03-04 00:10:00,29.1,17.0,29.98,SW,215,6.0,14.0,60,0.00,,---,0.00,VWS V14.01,2013-03-04 05:10:00,
2013-03-04 00:15:00,29.0,17.2,29.98,SW,231,4.0,12.0,61,0.00,,---,0.00,VWS V14.01,2013-03-04 05:15:00,
2013-03-04 00:20:00,29.0,17.2,29.98,East,80,2.0,14.0,61,0.00,,---,0.00,VWS V14.01,2013-03-04 05:20:00,
2013-03-04 00:25:00,29.1,17.3,29.99,SSW,195,5.0,15.0,61,0.00,,---,0.00,VWS V14.01,2013-03-04 05:25:00,
2013-03-04 00:30:00,29.1,17.3,29.99,South,169,4.0,8.0,61,0.00,,---,0.00,VWS V14.01,2013-03-04 05:30:00,
2013-03-04 00:35:00,29.1,17.3,29.98,South,180,0.0,13.0,61,0.00,,---,0.00,VWS V14.01,2013-03-04 05:35:00,
2013-03-04 00:40:00,29.0,17.2,29.99,SSW,204,4.0,6.0,61,0.00,,---,0.00,VWS V14.01,2013-03-04 05:40:00,
2013-03-04 00:45:00,29.0,17.6,29.99,ESE,105,1.0,8.0,62,0.00,,---,0.00,VWS V14.01,2013-03-04 05:45:00,
2013-03-04 00:50:00,29.0,17.2,29.98,ESE,117,5.0,10.0,61,0.00,,---,0.00,VWS V14.01,2013-03-04 05:50:00,
2013-03-04 00:55:00,29.0,17.6,29.99,SW,216,3.0,6.0,62,0.00,,---,0.00,VWS V14.01,2013-03-04 05:55:00,
2013-03-04 01:00:00,29.0,17.2,29.99,South,173,5.0,13.0,61,0.00,,---,0.00,VWS V14.01,2013-03-04 06:00:00,
2013-03-04 01:05:00,28.9,17.5,29.99,ESE,105,5.0,12.0,62,0.00,,---,0.00,VWS V14.01,2013-03-04 06:05:00,
2013-03-04 01:10:00,28.9,17.5,29.99,SE,146,7.0,13.0,62,0.00,,---,0.00,VWS V14.01,2013-03-04 06:10:00,
2013-03-04 01:15:00,28.8,17.8,29.99,SSE,154,7.0,12.0,63,0.00,,---,0.00,VWS V14.01,2013-03-04 06:15:00,
2013-03-04 01:20:00,28.7,17.7,29.99,ENE,71,6.0,9.0,63,0.00,,---,0.00,VWS V14.01,2013-03-04 06:20:00,
2013-03-04 01:25:00,28.6,18.0,29.99,ESE,109,12.0,12.0,64,0.00,,---,0.00,VWS V14.01,2013-03-04 06:25:00,
2013-03-04 01:30:00,28.5,17.5,30.00,SE,125,0.0,12.0,63,0.00,,---,0.00,VWS V14.01,2013-03-04 06:30:00,
2013-03-04 01:35:00,28.5,17.5,30.00,North,355,0.0,6.0,63,0.00,,---,0.00,VWS V14.01,2013-03-04 06:35:00,
2013-03-04 01:40:00,28.3,17.0,30.00,NE,35,2.0,6.0,62,0.00,,---,0.00,VWS V14.01,2013-03-04 06:40:00,
2013-03-04 01:45:00,28.2,16.9,29.99,East,86,4.0,5.0,62,0.00,,---,0.00,VWS V14.01,2013-03-04 06:45:00,
2013-03-04 01:50:00,28.2,16.1,30.00,SSE,166,0.0,9.0,60,0.00,,---,0.00,VWS V14.01,2013-03-04 06:50:00,
2013-03-04 01:55:00,28.1,16.0,30.01,NW,306,1.0,11.0,60,0.00,,---,0.00,VWS V14.01,2013-03-04 06:55:00,
2013-03-04 02:00:00,28.1,16.4,30.01,SE,136,2.0,8.0,61,0.00,,---,0.00,VWS V14.01,2013-03-04 07:00:00,
2013-03-04 02:05:00,28.1,16.4,30.01,SSW,207,2.0,10.0,61,0.00,,---,0.00,VWS V14.01,2013-03-04 07:05:00,
2013-03-04 02:10:00,28.1,16.4,30.01,ENE,61,3.0,7.0,61,0.00,,---,0.00,VWS V14.01,2013-03-04 07:10:00,
2013-03-04 02:15:00,28.1,16.4,30.01,NNE,32,4.0,8.0,61,0.00,,---,0.00,VWS V14.01,2013-03-04 07:15:00,
2013-03-04 02:20:00,28.0,16.3,30.01,NNW,332,4.0,8.0,61,0.00,,---,0.00,VWS V14.01,2013-03-04 07:20:00,
2013-03-04 02:25:00,28.0,16.3,30.01,NNE,30,5.0,5.0,61,0.00,,---,0.00,VWS V14.01,2013-03-04 07:25:00,
2013-03-04 02:30:00,28.0,15.9,30.01,NE,49,5.0,7.0,60,0.00,,---,0.00,VWS V14.01,2013-03-04 07:30:00,
2013-03-04 02:35:00,27.7,15.6,30.01,ENE,57,4.0,13.0,60,0.00,,---,0.00,VWS V14.01,2013-03-04 07:35:00,
2013-03-04 02:40:00,28.0,15.9,29.99,NE,55,2.0,5.0,60,0.00,,---,0.00,VWS V14.01,2013-03-04 07:40:00,
2013-03-04 02:45:00,27.9,15.4,29.99,SE,127,2.0,15.0,59,0.00,,---,0.00,VWS V14.01,2013-03-04 07:45:00,
2013-03-04 02:50:00,27.8,15.7,29.99,SE,133,1.0,7.0,60,0.00,,---,0.00,VWS V14.01,2013-03-04 07:50:00,
2013-03-04 02:55:00,27.8,15.7,30.00,SSW,207,2.0,4.0,60,0.00,,---,0.00,VWS V14.01,2013-03-04 07:55:00,
2013-03-04 03:00:00,27.8,15.7,30.00,SW,227,5.0,12.0,60,0.00,,---,0.00,VWS V14.01,2013-03-04 08:00:00,
2013-03-04 03:05:00,27.6,15.6,30.01,WSW,258,0.0,10.0,60,0.00,,---,0.00,VWS V14.01,2013-03-04 08:05:00,
2013-03-04 03:10:00,27.5,15.4,30.01,NNW,329,5.0,6.0,60,0.00,,---,0.00,VWS V14.01,2013-03-04 08:10:00,
2013-03-04 03:15:00,27.4,15.4,30.00,NE,38,2.0,8.0,60,0.00,,---,0.00,VWS V14.01,2013-03-04 08:15:00,
2013-03-04 03:20:00,27.6,15.9,30.00,NE,40,3.0,7.0,61,0.00,,---,0.00,VWS V14.01,2013-03-04 08:20:00,
2013-03-04 03:25:00,27.6,15.6,30.00,NW,320,2.0,8.0,60,0.00,,---,0.00,VWS V14.01,2013-03-04 08:25:00,
2013-03-04 03:30:00,27.6,15.9,30.00,NNE,14,8.0,9.0,61,0.00,,---,0.00,VWS V14.01,2013-03-04 08:30:00,
2013-03-04 03:35:00,27.7,15.6,30.01,ENE,57,4.0,13.0,60,0.00,,---,0.00,VWS V14.01,2013-03-04 08:35:00,
2013-03-04 03:40:00,27.8,15.7,30.00,North,355,6.0,7.0,60,0.00,,---,0.00,VWS V14.01,2013-03-04 08:40:00,
2013-03-04 03:45:00,27.8,15.7,30.01,SE,142,2.0,11.0,60,0.00,,---,0.00,VWS V14.01,2013-03-04 08:45:00,
2013-03-04 03:50:00,27.8,15.7,30.01,NE,46,0.0,6.0,60,0.00,,---,0.00,VWS V14.01,2013-03-04 08:50:00,
2013-03-04 03:55:00,27.7,15.6,30.01,NE,40,4.0,7.0,60,0.00,,---,0.00,VWS V14.01,2013-03-04 08:55:00,
2013-03-04 04:00:00,27.8,15.7,30.00,SW,227,5.0,12.0,60,0.00,,---,0.00,VWS V14.01,2013-03-04 09:00:00,
2013-03-04 04:05:00,27.9,15.4,30.01,WSW,248,0.0,7.0,59,0.00,,---,0.00,VWS V14.01,2013-03-04 09:05:00,
2013-03-04 04:10:00,27.9,15.4,30.01,NNW,340,1.0,6.0,59,0.00,,---,0.00,VWS V14.01,2013-03-04 09:10:00,
2013-03-04 04:15:00,27.7,15.6,30.01,ENE,77,4.0,5.0,60,0.00,,---,0.00,VWS V14.01,2013-03-04 09:15:00,
2013-03-04 04:20:00,27.5,15.4,30.01,NW,325,2.0,8.0,60,0.00,,---,0.00,VWS V14.01,2013-03-04 09:20:00,
2013-03-04 04:25:00,27.4,15.4,30.01,NW,325,1.0,5.0,60,0.00,,---,0.00,VWS V14.01,2013-03-04 09:25:00,
2013-03-04 04:30:00,27.3,15.6,30.02,North,5,1.0,4.0,61,0.00,,---,0.00,VWS V14.01,2013-03-04 09:30:00,
2013-03-04 04:35:00,27.1,15.8,30.02,North,9,2.0,3.0,62,0.00,,---,0.00,VWS V14.01,2013-03-04 09:35:00,
2013-03-04 04:40:00,26.9,15.6,30.02,North,9,2.0,4.0,62,0.00,,---,0.00,VWS V14.01,2013-03-04 09:40:00,
2013-03-04 04:45:00,26.6,15.4,30.03,North,9,0.0,3.0,62,0.00,,---,0.00,VWS V14.01,2013-03-04 09:45:00,
2013-03-04 04:50:00,27.3,15.3,30.06,South,188,5.0,11.0,60,0.00,,---,0.00,VWS V14.01,2013-03-04 09:50:00,
2013-03-04 04:55:00,26.5,15.6,30.04,ENE,71,1.0,9.0,63,0.00,,---,0.00,VWS V14.01,2013-03-04 09:55:00,
2013-03-04 05:00:00,26.6,16.1,30.04,ENE,65,4.0,4.0,64,0.00,,---,0.00,VWS V14.01,2013-03-04 10:00:00,
2013-03-04 05:05:00,26.6,17.5,30.04,ESE,122,2.0,8.0,68,0.00,,---,0.00,VWS V14.01,2013-03-04 10:05:00,
2013-03-04 05:10:00,26.7,15.8,30.05,NNE,32,4.0,4.0,63,0.00,,---,0.00,VWS V14.01,2013-03-04 10:10:00,
2013-03-04 05:15:00,26.9,14.9,30.05,NW,325,1.0,7.0,60,0.00,,---,0.00,VWS V14.01,2013-03-04 10:15:00,
2013-03-04 05:20:00,27.0,15.7,30.05,NNE,30,0.0,5.0,62,0.00,,---,0.00,VWS V14.01,2013-03-04 10:20:00,
2013-03-04 05:25:00,27.2,15.6,30.05,ENE,64,4.0,12.0,61,0.00,,---,0.00,VWS V14.01,2013-03-04 10:25:00,
2013-03-04 05:30:00,27.3,15.3,30.05,South,179,2.0,6.0,60,0.00,,---,0.00,VWS V14.01,2013-03-04 10:30:00,
2013-03-04 05:35:00,27.4,15.4,30.05,SE,132,0.0,5.0,60,0.00,,---,0.00,VWS V14.01,2013-03-04 10:35:00,
2013-03-04 05:40:00,27.4,15.4,30.05,NE,43,4.0,5.0,60,0.00,,---,0.00,VWS V14.01,2013-03-04 10:40:00,
2013-03-04 05:45:00,27.0,15.7,30.08,NE,43,0.0,5.0,62,0.00,,---,0.00,VWS V14.01,2013-03-04 10:45:00,
2013-03-04 05:50:00,27.3,15.3,30.06,South,188,5.0,11.0,60,0.00,,---,0.00,VWS V14.01,2013-03-04 10:50:00,
2013-03-04 05:55:00,26.6,15.4,30.08,WNW,287,0.0,5.0,62,0.00,,---,0.00,VWS V14.01,2013-03-04 10:55:00,
2013-03-04 06:00:00,27.3,15.3,30.06,SSW,194,4.0,11.0,60,0.00,,---,0.00,VWS V14.01,2013-03-04 11:00:00,
2013-03-04 06:05:00,27.3,15.3,30.06,SSW,210,4.0,4.0,60,0.00,,---,0.00,VWS V14.01,2013-03-04 11:05:00,
2013-03-04 06:10:00,27.3,15.3,30.06,North,10,1.0,7.0,60,0.00,,---,0.00,VWS V14.01,2013-03-04 11:10:00,
2013-03-04 06:15:00,27.3,15.3,30.06,North,360,3.0,5.0,60,0.00,,---,0.00,VWS V14.01,2013-03-04 11:15:00,
2013-03-04 06:20:00,27.2,15.6,30.07,ENE,78,3.0,7.0,61,0.00,,---,0.00,VWS V14.01,2013-03-04 11:20:00,
2013-03-04 06:25:00,27.1,15.4,30.07,South,190,1.0,10.0,61,0.00,,---,0.00,VWS V14.01,2013-03-04 11:25:00,
2013-03-04 06:30:00,27.1,15.1,30.07,South,188,0.0,3.0,60,0.00,,---,0.00,VWS V14.01,2013-03-04 11:30:00,
2013-03-04 06:35:00,27.1,15.4,30.07,West,269,0.0,3.0,61,0.00,,---,0.00,VWS V14.01,2013-03-04 11:35:00,
2013-03-04 06:40:00,27.0,15.0,30.07,West,279,1.0,5.0,60,0.00,,---,0.00,VWS V14.01,2013-03-04 11:40:00,
2013-03-04 06:45:00,27.0,15.7,30.08,NE,43,0.0,5.0,62,0.00,,---,0.00,VWS V14.01,2013-03-04 11:45:00,
2013-03-04 06:50:00,28.8,15.9,30.10,ENE,74,5.0,14.0,58,0.00,,---,0.00,VWS V14.01,2013-03-04 11:50:00,
2013-03-04 06:55:00,26.6,15.4,30.08,WNW,287,0.0,5.0,62,0.00,,---,0.00,VWS V14.01,2013-03-04 11:55:00,
2013-03-04 07:00:00,26.5,15.3,30.08,NE,45,3.0,8.0,62,0.00,,---,0.00,VWS V14.01,2013-03-04 12:00:00,
2013-03-04 07:05:00,26.7,15.1,30.08,NE,50,3.0,8.0,61,0.00,,---,0.00,VWS V14.01,2013-03-04 12:05:00,
2013-03-04 07:10:00,27.0,15.4,30.08,NE,45,8.0,8.0,61,0.00,,---,0.00,VWS V14.01,2013-03-04 12:10:00,
2013-03-04 07:15:00,27.4,15.7,30.09,East,82,4.0,14.0,61,0.00,,---,0.00,VWS V14.01,2013-03-04 12:15:00,
2013-03-04 07:20:00,27.6,15.6,30.09,NNE,26,2.0,7.0,60,0.00,,---,0.00,VWS V14.01,2013-03-04 12:20:00,
2013-03-04 07:25:00,27.8,15.7,30.09,ENE,69,2.0,11.0,60,0.00,,---,0.00,VWS V14.01,2013-03-04 12:25:00,
2013-03-04 07:30:00,28.0,15.9,30.10,North,11,5.0,7.0,60,0.00,,---,0.00,VWS V14.01,2013-03-04 12:30:00,
2013-03-04 07:35:00,28.1,16.0,30.09,NNE,22,2.0,8.0,60,0.00,,---,0.00,VWS V14.01,2013-03-04 12:35:00,
2013-03-04 07:40:00,31.9,16.3,30.11,SW,225,1.0,12.0,52,0.00,,---,0.00,VWS V14.01,2013-03-04 12:40:00,
2013-03-04 07:45:00,28.6,15.7,30.10,NE,47,7.0,14.0,58,0.00,,---,0.00,VWS V14.01,2013-03-04 12:45:00,
2013-03-04 07:50:00,28.8,15.9,30.10,ENE,74,5.0,14.0,58,0.00,,---,0.00,VWS V14.01,2013-03-04 12:50:00,
2013-03-04 07:55:00,29.1,16.2,30.10,NNE,14,2.0,8.0,58,0.00,,---,0.00,VWS V14.01,2013-03-04 12:55:00,
2013-03-04 08:00:00,29.3,16.0,30.11,East,89,4.0,6.0,57,0.00,,---,0.00,VWS V14.01,2013-03-04 13:00:00,
2013-03-04 08:05:00,29.5,16.2,30.11,East,84,1.0,11.0,57,0.00,,---,0.00,VWS V14.01,2013-03-04 13:05:00,
2013-03-04 08:10:00,29.8,16.4,30.10,SE,136,4.0,6.0,57,0.00,,---,0.00,VWS V14.01,2013-03-04 13:10:00,
2013-03-04 08:15:00,30.2,16.4,30.10,NNW,340,8.0,9.0,56,0.00,,---,0.00,VWS V14.01,2013-03-04 13:15:00,
2013-03-04 08:20:00,30.6,16.4,30.11,WSW,251,2.0,13.0,55,0.00,,---,0.00,VWS V14.01,2013-03-04 13:20:00,
2013-03-04 08:25:00,30.7,16.5,30.11,NW,305,2.0,5.0,55,0.00,,---,0.00,VWS V14.01,2013-03-04 13:25:00,
2013-03-04 08:30:00,31.1,16.8,30.11,WNW,293,2.0,7.0,55,0.00,,---,0.00,VWS V14.01,2013-03-04 13:30:00,
2013-03-04 08:35:00,33.9,15.3,30.11,NE,46,5.0,14.0,46,0.00,,---,0.00,VWS V14.01,2013-03-04 13:35:00,
2013-03-04 08:40:00,31.9,16.3,30.11,SW,225,1.0,12.0,52,0.00,,---,0.00,VWS V14.01,2013-03-04 13:40:00,
2013-03-04 08:45:00,32.1,16.5,30.12,South,175,5.0,6.0,52,0.00,,---,0.00,VWS V14.01,2013-03-04 13:45:00,
2013-03-04 08:50:00,32.4,16.3,30.11,SW,232,2.0,8.0,51,0.00,,---,0.00,VWS V14.01,2013-03-04 13:50:00,
2013-03-04 08:55:00,32.6,16.0,30.11,SW,222,10.0,11.0,50,0.00,,---,0.00,VWS V14.01,2013-03-04 13:55:00,
2013-03-04 09:00:00,32.9,15.4,30.11,SSE,161,6.0,18.0,48,0.00,,---,0.00,VWS V14.01,2013-03-04 14:00:00,
2013-03-04 09:05:00,32.9,15.4,30.12,East,97,7.0,15.0,48,0.00,,---,0.00,VWS V14.01,2013-03-04 14:05:00,
2013-03-04 09:10:00,32.8,15.3,30.12,ENE,78,5.0,18.0,48,0.00,,---,0.00,VWS V14.01,2013-03-04 14:10:00,
2013-03-04 09:15:00,32.9,15.4,30.11,SE,134,1.0,16.0,48,0.00,,---,0.00,VWS V14.01,2013-03-04 14:15:00,
2013-03-04 09:20:00,33.2,15.2,30.11,SSE,155,11.0,14.0,47,0.00,,---,0.00,VWS V14.01,2013-03-04 14:20:00,
2013-03-04 09:25:00,33.4,15.4,30.11,ESE,122,6.0,20.0,47,0.00,,---,0.00,VWS V14.01,2013-03-04 14:25:00,
2013-03-04 09:30:00,33.6,15.0,30.11,SE,138,6.0,16.0,46,0.00,,---,0.00,VWS V14.01,2013-03-04 14:30:00,
2013-03-04 09:35:00,33.9,15.3,30.11,NE,46,5.0,14.0,46,0.00,,---,0.00,VWS V14.01,2013-03-04 14:35:00,
2013-03-04 09:40:00,34.3,14.7,30.11,ESE,105,9.0,13.0,44,0.00,,---,0.00,VWS V14.01,2013-03-04 14:40:00,
2013-03-04 09:45:00,34.5,14.9,30.11,ENE,58,5.0,18.0,44,0.00,,---,0.00,VWS V14.01,2013-03-04 14:45:00,
2013-03-04 09:50:00,34.7,15.0,30.11,SSW,201,1.0,21.0,44,0.00,,---,0.00,VWS V14.01,2013-03-04 14:50:00,
2013-03-04 09:55:00,35.0,14.2,30.12,East,92,4.0,12.0,42,0.00,,---,0.00,VWS V14.01,2013-03-04 14:55:00,
2013-03-04 10:00:00,35.5,14.7,30.12,NE,42,2.0,8.0,42,0.00,,---,0.00,VWS V14.01,2013-03-04 15:00:00,
2013-03-04 10:05:00,35.9,14.5,30.11,SW,232,6.0,16.0,41,0.00,,---,0.00,VWS V14.01,2013-03-04 15:05:00,
2013-03-04 10:10:00,36.2,14.2,30.11,ESE,111,12.0,13.0,40,0.00,,---,0.00,VWS V14.01,2013-03-04 15:10:00,
2013-03-04 10:15:00,36.5,13.9,30.11,ESE,107,12.0,22.0,39,0.00,,---,0.00,VWS V14.01,2013-03-04 15:15:00,
2013-03-04 10:20:00,36.5,14.5,30.11,ESE,121,5.0,22.0,40,0.00,,---,0.00,VWS V14.01,2013-03-04 15:20:00,
2013-03-04 10:25:00,36.7,14.7,30.12,SSW,205,5.0,18.0,40,0.00,,---,0.00,VWS V14.01,2013-03-04 15:25:00,
2013-03-04 10:30:00,36.9,14.3,30.12,ENE,64,11.0,18.0,39,0.00,,---,0.00,VWS V14.01,2013-03-04 15:30:00,
2013-03-04 10:35:00,36.9,13.7,30.11,East,90,11.0,17.0,38,0.00,,---,0.00,VWS V14.01,2013-03-04 15:35:00,
2013-03-04 10:40:00,37.3,13.4,30.11,SSW,194,4.0,12.0,37,0.00,,---,0.00,VWS V14.01,2013-03-04 15:40:00,
2013-03-04 10:45:00,37.9,14.0,30.11,East,92,2.0,11.0,37,0.00,,---,0.00,VWS V14.01,2013-03-04 15:45:00,
2013-03-04 10:50:00,38.6,14.0,30.11,SW,232,6.0,8.0,36,0.00,,---,0.00,VWS V14.01,2013-03-04 15:50:00,
2013-03-04 10:55:00,39.4,12.0,30.12,ENE,76,2.0,15.0,32,0.00,,---,0.00,VWS V14.01,2013-03-04 15:55:00,
2013-03-04 11:00:00,39.8,12.4,30.10,SE,146,10.0,11.0,32,0.00,,---,0.00,VWS V14.01,2013-03-04 16:00:00,
2013-03-04 11:05:00,40.2,11.3,30.11,SW,220,9.0,12.0,30,0.00,,---,0.00,VWS V14.01,2013-03-04 16:05:00,
2013-03-04 11:10:00,40.6,10.1,30.11,South,188,9.0,14.0,28,0.00,,---,0.00,VWS V14.01,2013-03-04 16:10:00,
2013-03-04 11:15:00,41.2,10.6,30.10,SW,236,5.0,19.0,28,0.00,,---,0.00,VWS V14.01,2013-03-04 16:15:00,
2013-03-04 11:20:00,41.7,9.4,30.10,SW,217,6.0,9.0,26,0.00,,---,0.00,VWS V14.01,2013-03-04 16:20:00,
2013-03-04 11:25:00,42.0,10.5,30.10,South,169,1.0,17.0,27,0.00,,---,0.00,VWS V14.01,2013-03-04 16:25:00,
2013-03-04 11:30:00,42.4,9.1,30.09,NE,40,6.0,6.0,25,0.00,,---,0.00,VWS V14.01,2013-03-04 16:30:00,
2013-03-04 11:35:00,42.9,10.4,30.09,NNW,338,6.0,10.0,26,0.00,,---,0.00,VWS V14.01,2013-03-04 16:35:00,
2013-03-04 11:40:00,43.3,8.0,30.10,SSE,163,5.0,15.0,23,0.00,,---,0.00,VWS V14.01,2013-03-04 16:40:00,
2013-03-04 11:45:00,43.4,7.1,30.09,SSW,202,5.0,16.0,22,0.00,,---,0.00,VWS V14.01,2013-03-04 16:45:00,
2013-03-04 11:50:00,43.7,7.4,30.09,South,177,6.0,10.0,22,0.00,,---,0.00,VWS V14.01,2013-03-04 16:50:00,
2013-03-04 11:55:00,44.1,7.7,30.08,SE,142,14.0,14.0,22,0.00,,---,0.00,VWS V14.01,2013-03-04 16:55:00,
2013-03-04 12:00:00,44.4,6.9,30.09,SSE,147,4.0,14.0,21,0.00,,---,0.00,VWS V14.01,2013-03-04 17:00:00,
2013-03-04 12:05:00,44.8,7.3,30.09,SSW,199,6.0,11.0,21,0.00,,---,0.00,VWS V14.01,2013-03-04 17:05:00,
2013-03-04 12:10:00,45.3,14.1,30.09,North,355,7.0,7.0,28,0.00,,---,0.00,VWS V14.01,2013-03-04 17:10:00,
2013-03-04 12:15:00,45.5,11.7,30.10,NNE,30,6.0,12.0,25,0.00,,---,0.00,VWS V14.01,2013-03-04 17:15:00,
2013-03-04 12:20:00,45.3,10.6,30.10,SE,130,4.0,7.0,24,0.00,,---,0.00,VWS V14.01,2013-03-04 17:20:00,
2013-03-04 12:25:00,45.4,11.6,30.09,NW,316,5.0,7.0,25,0.00,,---,0.00,VWS V14.01,2013-03-04 17:25:00,
2013-03-04 12:30:00,45.6,11.8,30.08,NW,326,4.0,5.0,25,0.00,,---,0.00,VWS V14.01,2013-03-04 17:30:00,
2013-03-04 12:35:00,46.2,11.4,30.08,SE,143,6.0,7.0,24,0.00,,---,0.00,VWS V14.01,2013-03-04 17:35:00,
2013-03-04 12:40:00,46.6,7.7,30.08,WSW,240,0.0,8.0,20,0.00,,---,0.00,VWS V14.01,2013-03-04 17:40:00,
2013-03-04 12:45:00,46.9,9.0,30.08,SW,214,1.0,12.0,21,0.00,,---,0.00,VWS V14.01,2013-03-04 17:45:00,
2013-03-04 12:50:00,47.2,14.1,30.08,North,10,4.0,7.0,26,0.00,,---,0.00,VWS V14.01,2013-03-04 17:50:00,
2013-03-04 12:55:00,47.6,10.6,30.08,NNE,29,1.0,7.0,22,0.00,,---,0.00,VWS V14.01,2013-03-04 17:55:00,
2013-03-04 13:00:00,47.8,14.6,30.08,NNE,14,1.0,8.0,26,0.00,,---,0.00,VWS V14.01,2013-03-04 18:00:00,
2013-03-04 13:05:00,47.8,15.5,30.08,NNW,347,9.0,10.0,27,0.00,,---,0.00,VWS V14.01,2013-03-04 18:05:00,
2013-03-04 13:10:00,47.9,12.9,30.07,NNW,342,6.0,9.0,24,0.00,,---,0.00,VWS V14.01,2013-03-04 18:10:00,
2013-03-04 13:15:00,50.3,13.9,30.03,NNW,336,7.0,9.0,23,0.00,,---,0.00,VWS V14.01,2013-03-04 18:15:00,
2013-03-04 13:20:00,48.3,6.8,30.06,East,80,5.0,8.0,18,0.00,,---,0.00,VWS V14.01,2013-03-04 18:20:00,
2013-03-04 13:25:00,48.8,8.4,30.06,ESE,116,1.0,5.0,19,0.00,,---,0.00,VWS V14.01,2013-03-04 18:25:00,
2013-03-04 13:30:00,49.1,11.9,30.06,North,360,6.0,8.0,22,0.00,,---,0.00,VWS V14.01,2013-03-04 18:30:00,
2013-03-04 13:35:00,49.1,11.9,30.05,ENE,76,4.0,12.0,22,0.00,,---,0.00,VWS V14.01,2013-03-04 18:35:00,
2013-03-04 13:40:00,49.1,11.9,30.06,ESE,119,4.0,5.0,22,0.00,,---,0.00,VWS V14.01,2013-03-04 18:40:00,
2013-03-04 13:45:00,49.4,12.2,30.04,North,5,5.0,7.0,22,0.00,,---,0.00,VWS V14.01,2013-03-04 18:45:00,
2013-03-04 13:50:00,49.7,13.4,30.05,North,5,6.0,6.0,23,0.00,,---,0.00,VWS V14.01,2013-03-04 18:50:00,
2013-03-04 13:55:00,50.1,11.7,30.05,ENE,67,4.0,9.0,21,0.00,,---,0.00,VWS V14.01,2013-03-04 18:55:00,
2013-03-04 14:00:00,50.2,11.8,30.04,NNW,341,2.0,6.0,21,0.00,,---,0.00,VWS V14.01,2013-03-04 19:00:00,
2013-03-04 14:05:00,50.4,10.9,30.04,ESE,103,5.0,11.0,20,0.00,,---,0.00,VWS V14.01,2013-03-04 19:05:00,
2013-03-04 14:10:00,50.3,10.8,30.03,NE,54,1.0,10.0,20,0.00,,---,0.00,VWS V14.01,2013-03-04 19:10:00,
2013-03-04 14:15:00,50.3,13.9,30.03,NNW,336,7.0,9.0,23,0.00,,---,0.00,VWS V14.01,2013-03-04 19:15:00,
2013-03-04 14:20:00,53.2,12.0,30.02,West,271,2.0,2.0,19,0.00,,---,0.00,VWS V14.01,2013-03-04 19:20:00,
2013-03-04 14:25:00,50.9,11.3,30.03,NE,38,0.0,10.0,20,0.00,,---,0.00,VWS V14.01,2013-03-04 19:25:00,
2013-03-04 14:30:00,51.2,11.5,30.03,NNW,330,5.0,9.0,20,0.00,,---,0.00,VWS V14.01,2013-03-04 19:30:00,
2013-03-04 14:35:00,54.4,11.8,30.02,North,5,4.0,6.0,18,0.00,,---,0.00,VWS V14.01,2013-03-04 19:35:00,
2013-03-04 14:40:00,51.7,11.9,30.03,NNW,333,4.0,8.0,20,0.00,,---,0.00,VWS V14.01,2013-03-04 19:40:00,
2013-03-04 14:45:00,51.8,10.9,30.03,WNW,294,0.0,6.0,19,0.00,,---,0.00,VWS V14.01,2013-03-04 19:45:00,
2013-03-04 14:50:00,52.2,12.4,30.03,NW,315,1.0,5.0,20,0.00,,---,0.00,VWS V14.01,2013-03-04 19:50:00,
2013-03-04 14:55:00,52.3,13.5,30.03,NNW,348,8.0,11.0,21,0.00,,---,0.00,VWS V14.01,2013-03-04 19:55:00,
2013-03-04 15:00:00,52.4,11.4,30.03,West,280,4.0,10.0,19,0.00,,---,0.00,VWS V14.01,2013-03-04 20:00:00,
2013-03-04 15:05:00,52.4,11.4,30.03,West,281,2.0,5.0,19,0.00,,---,0.00,VWS V14.01,2013-03-04 20:05:00,
2013-03-04 15:10:00,52.7,12.8,30.03,West,279,4.0,8.0,20,0.00,,---,0.00,VWS V14.01,2013-03-04 20:10:00,
2013-03-04 15:15:00,52.8,11.7,30.02,West,271,0.0,6.0,19,0.00,,---,0.00,VWS V14.01,2013-03-04 20:15:00,
2013-03-04 15:20:00,54.4,14.2,30.01,NNE,12,4.0,6.0,20,0.00,,---,0.00,VWS V14.01,2013-03-04 20:20:00,
2013-03-04 15:25:00,53.7,14.7,30.02,SSW,213,1.0,4.0,21,0.00,,---,0.00,VWS V14.01,2013-03-04 20:25:00,
2013-03-04 15:30:00,54.7,14.4,30.01,NE,46,4.0,6.0,20,0.00,,---,0.00,VWS V14.01,2013-03-04 20:30:00,
2013-03-04 15:35:00,54.4,11.8,30.02,North,5,4.0,6.0,18,0.00,,---,0.00,VWS V14.01,2013-03-04 20:35:00,
2013-03-04 15:40:00,54.8,12.1,30.02,NW,309,4.0,7.0,18,0.00,,---,0.00,VWS V14.01,2013-03-04 20:40:00,
2013-03-04 15:45:00,54.6,13.2,30.02,WNW,292,4.0,7.0,19,0.00,,---,0.00,VWS V14.01,2013-03-04 20:45:00,
2013-03-04 15:50:00,54.5,13.1,30.02,NNE,19,10.0,10.0,19,0.00,,---,0.00,VWS V14.01,2013-03-04 20:50:00,
2013-03-04 15:55:00,54.2,11.6,30.02,NE,50,4.0,10.0,18,0.00,,---,0.00,VWS V14.01,2013-03-04 20:55:00,
2013-03-04 16:00:00,54.4,10.5,30.02,SSE,164,4.0,9.0,17,0.00,,---,0.00,VWS V14.01,2013-03-04 21:00:00,
2013-03-04 16:05:00,54.0,13.9,30.02,North,355,4.0,6.0,20,0.00,,---,0.00,VWS V14.01,2013-03-04 21:05:00,
2013-03-04 16:10:00,54.1,12.8,30.02,NNE,28,3.0,8.0,19,0.00,,---,0.00,VWS V14.01,2013-03-04 21:10:00,
2013-03-04 16:15:00,54.2,12.9,30.02,North,360,4.0,7.0,19,0.00,,---,0.00,VWS V14.01,2013-03-04 21:15:00,
2013-03-04 16:20:00,54.2,11.6,30.02,NE,35,3.0,5.0,18,0.00,,---,0.00,VWS V14.01,2013-03-04 21:20:00,
2013-03-04 16:25:00,54.5,11.9,30.01,East,81,1.0,10.0,18,0.00,,---,0.00,VWS V14.01,2013-03-04 21:25:00,
2013-03-04 16:30:00,54.7,14.4,30.01,NE,46,4.0,6.0,20,0.00,,---,0.00,VWS V14.01,2013-03-04 21:30:00,
2013-03-04 16:35:00,54.9,14.6,30.01,NNW,333,5.0,7.0,20,0.00,,---,0.00,VWS V14.01,2013-03-04 21:35:00,
2013-03-04 16:40:00,54.8,12.1,30.02,NW,309,4.0,7.0,18,0.00,,---,0.00,VWS V14.01,2013-03-04 21:40:00,
2013-03-04 16:45:00,54.7,10.8,30.02,NW,311,2.0,8.0,17,0.00,,---,0.00,VWS V14.01,2013-03-04 21:45:00,
2013-03-04 16:50:00,52.5,18.6,30.02,NE,40,0.0,2.0,26,0.00,,---,0.00,VWS V14.01,2013-03-04 21:50:00,
2013-03-04 16:55:00,54.6,12.0,30.01,NE,51,3.0,7.0,18,0.00,,---,0.00,VWS V14.01,2013-03-04 21:55:00,
2013-03-04 17:00:00,54.4,10.5,30.02,SSE,164,4.0,9.0,17,0.00,,---,0.00,VWS V14.01,2013-03-04 22:00:00,
2013-03-04 17:05:00,54.4,9.2,30.02,SSE,167,0.0,4.0,16,0.00,,---,0.00,VWS V14.01,2013-03-04 22:05:00,
2013-03-04 17:10:00,49.7,20.3,30.04,SE,129,0.0,2.0,31,0.00,,---,0.00,VWS V14.01,2013-03-04 22:10:00,
2013-03-04 17:15:00,54.2,10.4,30.02,East,96,2.0,4.0,17,0.00,,---,0.00,VWS V14.01,2013-03-04 22:15:00,
2013-03-04 17:20:00,48.4,20.6,30.04,SE,129,0.0,0.0,33,0.00,,---,0.00,VWS V14.01,2013-03-04 22:20:00,
2013-03-04 17:25:00,54.1,10.3,30.02,ENE,74,2.0,6.0,17,0.00,,---,0.00,VWS V14.01,2013-03-04 22:25:00,
2013-03-04 17:30:00,53.7,9.9,30.02,ENE,57,1.0,7.0,17,0.00,,---,0.00,VWS V14.01,2013-03-04 22:30:00,
2013-03-04 17:35:00,53.5,13.4,30.02,NE,40,1.0,5.0,20,0.00,,---,0.00,VWS V14.01,2013-03-04 22:35:00,
2013-03-04 17:40:00,53.2,13.2,30.02,NE,40,3.0,4.0,20,0.00,,---,0.00,VWS V14.01,2013-03-04 22:40:00,
2013-03-04 17:45:00,52.8,17.0,30.02,NE,40,1.0,3.0,24,0.00,,---,0.00,VWS V14.01,2013-03-04 22:45:00,
2013-03-04 17:50:00,52.5,18.6,30.02,NE,40,0.0,2.0,26,0.00,,---,0.00,VWS V14.01,2013-03-04 22:50:00,
2013-03-04 17:55:00,52.0,17.3,30.03,NE,40,1.0,3.0,25,0.00,,---,0.00,VWS V14.01,2013-03-04 22:55:00,
2013-03-04 18:00:00,51.2,18.4,30.03,NE,40,0.0,3.0,27,0.00,,---,0.00,VWS V14.01,2013-03-04 23:00:00,
2013-03-04 18:05:00,42.8,18.4,30.05,SE,130,0.0,2.0,37,0.00,,---,0.00,VWS V14.01,2013-03-04 23:05:00,
2013-03-04 18:10:00,49.7,20.3,30.04,SE,129,0.0,2.0,31,0.00,,---,0.00,VWS V14.01,2013-03-04 23:10:00,
2013-03-04 18:15:00,49.1,19.8,30.04,SE,129,0.0,2.0,31,0.00,,---,0.00,VWS V14.01,2013-03-04 23:15:00,
2013-03-04 18:20:00,48.4,20.6,30.04,SE,129,0.0,0.0,33,0.00,,---,0.00,VWS V14.01,2013-03-04 23:20:00,
2013-03-04 18:25:00,47.7,19.3,30.05,SE,129,0.0,0.0,32,0.00,,---,0.00,VWS V14.01,2013-03-04 23:25:00,
2013-03-04 18:30:00,47.0,18.7,30.04,SE,129,0.0,0.0,32,0.00,,---,0.00,VWS V14.01,2013-03-04 23:30:00,
2013-03-04 18:35:00,40.7,18.3,30.06,SE,128,1.0,1.0,40,0.00,,---,0.00,VWS V14.01,2013-03-04 23:35:00,
2013-03-04 18:40:00,45.6,16.7,30.04,SE,130,1.0,4.0,31,0.00,,---,0.00,VWS V14.01,2013-03-04 23:40:00,
2013-03-04 18:45:00,45.0,16.9,30.04,SE,130,2.0,4.0,32,0.00,,---,0.00,VWS V14.01,2013-03-04 23:45:00,
2013-03-04 18:50:00,44.4,17.8,30.05,SE,130,0.0,4.0,34,0.00,,---,0.00,VWS V14.01,2013-03-04 23:50:00,
2013-03-04 18:55:00,43.8,18.0,30.05,SE,130,0.0,2.0,35,0.00,,---,0.00,VWS V14.01,2013-03-04 23:55:00,
2013-03-04 19:00:00,43.3,19.4,30.05,SE,129,0.0,4.0,38,0.00,,---,0.00,VWS V14.01,2013-03-05 00:00:00,
2013-03-04 19:05:00,42.8,18.4,30.05,SE,130,0.0,2.0,37,0.00,,---,0.00,VWS V14.01,2013-03-05 00:05:00,
2013-03-04 19:10:00,42.5,18.7,30.05,SE,130,1.0,2.0,38,0.00,,---,0.00,VWS V14.01,2013-03-05 00:10:00,
2013-03-04 19:15:00,42.1,20.7,30.05,SE,128,0.0,4.0,42,0.00,,---,0.00,VWS V14.01,2013-03-05 00:15:00,
2013-03-04 19:20:00,39.0,18.4,30.06,SE,132,2.0,4.0,43,0.00,,---,0.00,VWS V14.01,2013-03-05 00:20:00,
2013-03-04 19:25:00,41.4,18.9,30.06,SE,128,0.0,0.0,40,0.00,,---,0.00,VWS V14.01,2013-03-05 00:25:00,
2013-03-04 19:30:00,41.0,17.4,30.05,SE,128,1.0,4.0,38,0.00,,---,0.00,VWS V14.01,2013-03-05 00:30:00,
2013-03-04 19:35:00,40.7,18.3,30.06,SE,128,1.0,1.0,40,0.00,,---,0.00,VWS V14.01,2013-03-05 00:35:00,
2013-03-04 19:40:00,40.5,17.5,30.05,SE,128,0.0,4.0,39,0.00,,---,0.00,VWS V14.01,2013-03-05 00:40:00,
2013-03-04 19:45:00,40.3,19.0,30.05,SE,128,0.0,2.0,42,0.00,,---,0.00,VWS V14.01,2013-03-05 00:45:00,
2013-03-04 19:50:00,40.0,17.1,30.05,SE,128,4.0,5.0,39,0.00,,---,0.00,VWS V14.01,2013-03-05 00:50:00,
2013-03-04 19:55:00,39.9,18.7,30.05,SE,128,0.0,4.0,42,0.00,,---,0.00,VWS V14.01,2013-03-05 00:55:00,
2013-03-04 20:00:00,39.7,16.2,30.05,SE,128,2.0,4.0,38,0.00,,---,0.00,VWS V14.01,2013-03-05 01:00:00,
2013-03-04 20:05:00,39.6,17.9,30.06,SE,128,1.0,4.0,41,0.00,,---,0.00,VWS V14.01,2013-03-05 01:05:00,
2013-03-04 20:10:00,39.5,19.4,30.06,SE,128,1.0,4.0,44,0.00,,---,0.00,VWS V14.01,2013-03-05 01:10:00,
2013-03-04 20:15:00,39.3,17.6,30.05,SE,132,2.0,5.0,41,0.00,,---,0.00,VWS V14.01,2013-03-05 01:15:00,
2013-03-04 20:20:00,39.0,18.4,30.06,SE,132,2.0,4.0,43,0.00,,---,0.00,VWS V14.01,2013-03-05 01:20:00,
2013-03-04 20:25:00,38.8,17.7,30.06,SE,132,1.0,2.0,42,0.00,,---,0.00,VWS V14.01,2013-03-05 01:25:00,
2013-03-04 20:30:00,38.7,17.0,30.06,SE,132,0.0,2.0,41,0.00,,---,0.00,VWS V14.01,2013-03-05 01:30:00,
2013-03-04 20:35:00,38.5,19.0,30.06,SE,137,1.0,5.0,45,0.00,,---,0.00,VWS V14.01,2013-03-05 01:35:00,
2013-03-04 20:40:00,38.4,17.9,30.06,SE,137,1.0,2.0,43,0.00,,---,0.00,VWS V14.01,2013-03-05 01:40:00,
2013-03-04 20:45:00,38.2,18.8,30.05,SE,137,0.0,1.0,45,0.00,,---,0.00,VWS V14.01,2013-03-05 01:45:00,
2013-03-04 20:50:00,38.0,17.0,30.06,SE,137,0.0,0.0,42,0.00,,---,0.00,VWS V14.01,2013-03-05 01:50:00,
2013-03-04 20:55:00,38.0,17.5,30.06,SE,137,0.0,2.0,43,0.00,,---,0.00,VWS V14.01,2013-03-05 01:55:00,
2013-03-04 21:00:00,37.9,16.9,30.06,SE,137,0.0,4.0,42,0.00,,---,0.00,VWS V14.01,2013-03-05 02:00:00,
2013-03-04 21:05:00,37.8,18.4,30.06,SE,137,0.0,2.0,45,0.00,,---,0.00,VWS V14.01,2013-03-05 02:05:00,
2013-03-04 21:10:00,37.7,18.3,30.05,SE,137,0.0,4.0,45,0.00,,---,0.00,VWS V14.01,2013-03-05 02:10:00,
2013-03-04 21:15:00,37.7,18.3,30.05,SE,137,0.0,0.0,45,0.00,,---,0.00,VWS V14.01,2013-03-05 02:15:00,
2013-03-04 21:20:00,37.6,17.1,30.05,SE,137,0.0,2.0,43,0.00,,---,0.00,VWS V14.01,2013-03-05 02:20:00,
2013-03-04 21:25:00,37.6,18.2,30.06,SE,137,0.0,0.0,45,0.00,,---,0.00,VWS V14.01,2013-03-05 02:25:00,
2013-03-04 21:30:00,37.5,17.0,30.06,SE,137,0.0,2.0,43,0.00,,---,0.00,VWS V14.01,2013-03-05 02:30:00,
2013-03-04 21:35:00,37.5,18.1,30.06,SE,137,0.0,2.0,45,0.00,,---,0.00,VWS V14.01,2013-03-05 02:35:00,
2013-03-04 21:40:00,37.5,17.6,30.06,SE,137,2.0,4.0,44,0.00,,---,0.00,VWS V14.01,2013-03-05 02:40:00,
2013-03-04 21:45:00,37.5,18.6,30.06,SE,137,0.0,4.0,46,0.00,,---,0.00,VWS V14.01,2013-03-05 02:45:00,
2013-03-04 21:50:00,37.6,18.2,30.06,SE,137,0.0,2.0,45,0.00,,---,0.00,VWS V14.01,2013-03-05 02:50:00,
2013-03-04 21:55:00,37.7,19.3,30.05,SE,137,0.0,0.0,47,0.00,,---,0.00,VWS V14.01,2013-03-05 02:55:00,
2013-03-04 22:00:00,37.7,20.3,30.06,SE,137,0.0,0.0,49,0.00,,---,0.00,VWS V14.01,2013-03-05 03:00:00,
2013-03-04 22:05:00,37.7,19.3,30.06,SE,137,0.0,1.0,47,0.00,,---,0.00,VWS V14.01,2013-03-05 03:05:00,
2013-03-04 22:10:00,37.6,18.7,30.06,SE,137,0.0,2.0,46,0.00,,---,0.00,VWS V14.01,2013-03-05 03:10:00,
2013-03-04 22:15:00,37.7,17.2,30.07,SE,137,2.0,2.0,43,0.00,,---,0.00,VWS V14.01,2013-03-05 03:15:00,
2013-03-04 22:20:00,37.8,18.4,30.06,SE,137,0.0,2.0,45,0.00,,---,0.00,VWS V14.01,2013-03-05 03:20:00,
2013-03-04 22:25:00,38.1,17.6,30.06,SE,137,4.0,5.0,43,0.00,,---,0.00,VWS V14.01,2013-03-05 03:25:00,
2013-03-04 22:30:00,38.5,19.0,30.06,SE,137,1.0,4.0,45,0.00,,---,0.00,VWS V14.01,2013-03-05 03:30:00,
2013-03-04 22:35:00,38.7,20.7,30.05,SE,137,1.0,2.0,48,0.00,,---,0.00,VWS V14.01,2013-03-05 03:35:00,
2013-03-04 22:40:00,38.7,19.7,30.06,SE,137,0.0,2.0,46,0.00,,---,0.00,VWS V14.01,2013-03-05 03:40:00,
2013-03-04 22:45:00,38.7,19.7,30.06,SE,137,0.0,0.0,46,0.00,,---,0.00,VWS V14.01,2013-03-05 03:45:00,
2013-03-04 22:50:00,38.6,18.6,30.05,SE,137,1.0,2.0,44,0.00,,---,0.00,VWS V14.01,2013-03-05 03:50:00,
2013-03-04 22:55:00,38.5,19.0,30.05,SE,137,0.0,1.0,45,0.00,,---,0.00,VWS V14.01,2013-03-05 03:55:00,
2013-03-04 23:00:00,38.4,20.4,30.05,SE,137,0.0,2.0,48,0.00,,---,0.00,VWS V14.01,2013-03-05 04:00:00,
2013-03-04 23:05:00,38.3,18.8,30.04,SE,137,4.0,4.0,45,0.00,,---,0.00,VWS V14.01,2013-03-05 04:05:00,
2013-03-04 23:10:00,38.2,20.7,30.04,SE,137,0.0,4.0,49,0.00,,---,0.00,VWS V14.01,2013-03-05 04:10:00,
2013-03-04 23:15:00,38.2,19.3,30.04,SE,137,0.0,0.0,46,0.00,,---,0.00,VWS V14.01,2013-03-05 04:15:00,
2013-03-04 23:20:00,38.1,19.7,30.05,SE,137,0.0,0.0,47,0.00,,---,0.00,VWS V14.01,2013-03-05 04:20:00,
2013-03-04 23:25:00,38.0,19.6,30.06,SE,137,0.0,0.0,47,0.00,,---,0.00,VWS V14.01,2013-03-05 04:25:00,
2013-03-04 23:30:00,37.8,19.4,30.05,SE,137,0.0,4.0,47,0.00,,---,0.00,VWS V14.01,2013-03-05 04:30:00,
2013-03-04 23:35:00,37.8,19.4,30.06,SE,137,0.0,4.0,47,0.00,,---,0.00,VWS V14.01,2013-03-05 04:35:00,
2013-03-04 23:40:00,37.7,20.3,30.06,SE,137,0.0,0.0,49,0.00,,---,0.00,VWS V14.01,2013-03-05 04:40:00,
2013-03-04 23:45:00,37.6,19.7,30.05,SE,137,0.0,0.0,48,0.00,,---,0.00,VWS V14.01,2013-03-05 04:45:00,
2013-03-04 23:50:00,37.4,20.5,30.05,SE,137,0.0,2.0,50,0.00,,---,0.00,VWS V14.01,2013-03-05 04:50:00,
2013-03-04 23:55:00,37.4,19.5,30.05,SE,137,0.0,2.0,48,0.00,,---,0.00,VWS V14.01,2013-03-05 04:55:00,